Time;durP1;ratioP1;P1;durP2;ratioP2;P2;SDS_P1;SDS_P2;PMS_P1;PMS_P2;Temp;Humidity;BMP_temperature;BMP_pressure;BME280_temperature;BME280_humidity;BME280_pressure;Samples;Min_cycle;Max_cycle;Signal;HPM_P1;HPM_P2
2023/08/20 00:00:12;;;;;;;0.20;0.20;;;;;;;21.24;65.85;100174.31;5024059;28;20064;-78
2023/08/20 00:02:42;;;;;;;0.30;0.30;;;;;;;21.28;65.46;100174.47;5028091;28;20059;-78
2023/08/20 00:05:09;;;;;;;0.20;0.20;;;;;;;21.35;66.66;100173.91;5001551;28;20046;-76
2023/08/20 00:07:36;;;;;;;0.20;0.20;;;;;;;21.35;65.77;100171.94;5043592;28;20527;-78
2023/08/20 00:10:07;;;;;;;0.20;0.20;;;;;;;21.38;64.63;100162.91;5032578;28;20315;-78
2023/08/20 00:12:34;;;;;;;0.20;0.20;;;;;;;21.41;64.16;100164.19;5032328;28;20050;-77
2023/08/20 00:15:05;;;;;;;0.20;0.20;;;;;;;21.43;64.23;100163.88;5036781;28;20420;-76
2023/08/20 00:17:34;;;;;;;0.20;0.20;;;;;;;21.41;65.76;100153.09;5020358;28;20049;-78
2023/08/20 00:20:04;;;;;;;0.20;0.20;;;;;;;21.42;65.14;100154.72;5024724;28;20091;-78
2023/08/20 00:22:31;;;;;;;0.20;0.20;;;;;;;21.40;66.47;100151.44;5021859;28;20509;-78
2023/08/20 00:24:58;;;;;;;0.20;0.20;;;;;;;21.43;65.42;100149.97;5037150;28;20049;-77
2023/08/20 00:27:25;;;;;;;0.20;0.20;;;;;;;21.43;64.98;100156.34;5018033;28;20057;-78
2023/08/20 00:29:52;;;;;;;0.20;0.20;;;;;;;21.41;65.81;100149.50;5004918;28;20052;-77
2023/08/20 00:32:18;;;;;;;0.20;0.20;;;;;;;21.36;64.54;100137.41;5024918;28;20349;-77
2023/08/20 00:34:45;;;;;;;0.20;0.20;;;;;;;21.32;65.91;100142.03;5023097;28;20447;-77
2023/08/20 00:37:12;;;;;;;0.20;0.20;;;;;;;21.28;67.75;100137.47;5039632;28;20052;-77
2023/08/20 00:39:38;;;;;;;0.20;0.20;;;;;;;21.22;67.83;100122.97;5034141;28;20080;-79
2023/08/20 00:42:05;;;;;;;0.20;0.20;;;;;;;21.21;67.37;100140.81;5013493;28;20065;-78
2023/08/20 00:44:31;;;;;;;0.20;0.20;;;;;;;21.17;65.00;100123.19;5032021;28;20071;-77
2023/08/20 00:47:00;;;;;;;0.20;0.20;;;;;;;21.17;66.89;100118.44;5022872;28;20041;-78
2023/08/20 00:49:27;;;;;;;0.20;0.20;;;;;;;21.14;67.58;100109.97;5023793;28;20073;-77
2023/08/20 00:51:54;;;;;;;0.20;0.20;;;;;;;21.05;68.92;100105.28;5032722;28;20067;-77
2023/08/20 00:54:20;;;;;;;;;;;;;;;21.06;68.63;100111.66;5022670;28;20330;-78
2023/08/20 00:56:48;;;;;;;0.20;0.20;;;;;;;20.92;70.19;100098.84;4998610;28;19948;-78
2023/08/20 00:59:16;;;;;;;0.20;0.20;;;;;;;20.98;70.17;100110.56;5026646;28;20144;-77
2023/08/20 01:01:43;;;;;;;0.20;0.20;;;;;;;20.94;70.43;100098.50;5030554;28;20108;-78
2023/08/20 01:04:11;;;;;;;0.20;0.20;;;;;;;20.95;70.63;100091.81;5004309;28;20084;-78
2023/08/20 01:06:45;;;;;;;0.20;0.20;;;;;;;20.86;71.26;100079.91;5026601;28;20049;-78
2023/08/20 01:09:30;;;;;;;0.20;0.20;;;;;;;20.84;71.68;100091.41;5041587;28;20056;-77
2023/08/20 01:12:02;;;;;;;0.20;0.20;;;;;;;20.90;71.40;100103.09;5021806;28;20065;-77
2023/08/20 01:14:30;;;;;;;0.20;0.20;;;;;;;20.86;71.60;100099.38;5015092;28;20053;-77
2023/08/20 01:16:56;;;;;;;0.20;0.20;;;;;;;20.82;71.42;100105.59;5027677;28;20076;-78
2023/08/20 01:19:24;;;;;;;0.20;0.20;;;;;;;20.76;72.07;100100.56;5025512;28;20045;-78
2023/08/20 01:22:05;;;;;;;0.20;0.20;;;;;;;20.73;71.39;100096.47;5012372;28;20041;-78
2023/08/20 01:24:44;;;;;;;0.20;0.20;;;;;;;20.68;67.98;100091.97;5028880;28;20274;-77
2023/08/20 01:27:28;;;;;;;0.20;0.20;;;;;;;20.66;68.05;100090.66;5006829;28;20069;-78
2023/08/20 01:29:57;;;;;;;0.20;0.20;;;;;;;20.73;69.31;100110.38;5040746;28;20045;-78
2023/08/20 01:32:25;;;;;;;0.20;0.20;;;;;;;20.73;70.16;100107.59;5033132;28;20610;-78
2023/08/20 01:34:52;;;;;;;0.20;0.20;;;;;;;20.70;67.81;100105.50;5036896;28;20115;-78
2023/08/20 01:37:19;;;;;;;0.20;0.20;;;;;;;20.70;70.26;100099.94;5032976;28;20054;-77
2023/08/20 01:39:46;;;;;;;0.20;0.20;;;;;;;20.71;68.49;100106.31;5019312;28;20042;-78
2023/08/20 01:42:12;;;;;;;;;;;;;;;20.71;68.96;100097.97;5029770;28;20116;-78
2023/08/20 01:44:38;;;;;;;0.30;0.30;;;;;;;20.73;70.33;100095.69;5020421;28;19925;-77
2023/08/20 01:47:06;;;;;;;0.30;0.30;;;;;;;20.72;69.95;100097.63;5021648;28;20107;-78
2023/08/20 01:49:32;;;;;;;0.30;0.30;;;;;;;20.72;70.50;100094.84;5039163;28;20045;-78
2023/08/20 01:52:01;;;;;;;0.30;0.30;;;;;;;20.76;71.36;100089.44;5029113;28;20068;-78
2023/08/20 01:54:28;;;;;;;0.20;0.20;;;;;;;20.77;71.50;100091.91;5013399;28;20061;-77
2023/08/20 01:56:56;;;;;;;0.30;0.30;;;;;;;20.83;71.60;100096.13;5029873;28;20493;-77
2023/08/20 01:59:23;;;;;;;0.30;0.30;;;;;;;20.84;72.63;100113.63;5025902;28;20049;-76
2023/08/20 02:01:49;;;;;;;0.20;0.20;;;;;;;20.85;72.85;100119.97;5027333;28;20068;-77
2023/08/20 02:04:17;;;;;;;0.20;0.20;;;;;;;20.82;72.45;100113.94;5047351;28;20071;-78
2023/08/20 02:06:44;;;;;;;0.20;0.20;;;;;;;20.83;70.47;100107.22;5024770;28;20045;-76
2023/08/20 02:09:10;;;;;;;0.38;0.30;;;;;;;20.81;71.78;100103.16;5026241;28;20140;-77
2023/08/20 02:11:36;;;;;;;0.20;0.20;;;;;;;20.83;70.80;100106.41;5032553;28;20041;-78
2023/08/20 02:14:03;;;;;;;0.20;0.20;;;;;;;20.80;70.85;100101.50;5023617;28;20102;-78
2023/08/20 02:16:29;;;;;;;0.20;0.20;;;;;;;20.82;70.98;100113.94;5025353;28;20049;-78
2023/08/20 02:18:56;;;;;;;0.20;0.20;;;;;;;20.69;70.79;100101.91;5028594;28;20049;-78
2023/08/20 02:21:23;;;;;;;0.20;0.20;;;;;;;20.77;70.27;100113.28;5030739;28;20060;-78
2023/08/20 02:23:50;;;;;;;0.20;0.20;;;;;;;20.76;71.06;100122.78;5024749;28;20049;-76
2023/08/20 02:26:16;;;;;;;0.30;0.30;;;;;;;20.82;72.09;100115.91;5041391;28;20041;-77
2023/08/20 02:28:42;;;;;;;0.20;0.20;;;;;;;20.79;72.39;100128.47;5020157;28;20156;-78
2023/08/20 02:31:08;;;;;;;0.20;0.20;;;;;;;20.81;73.81;100130.94;5043631;28;20272;-78
2023/08/20 02:33:35;;;;;;;0.30;0.30;;;;;;;20.83;74.38;100134.19;5046346;28;20049;-79
2023/08/20 02:36:03;;;;;;;0.22;0.22;;;;;;;20.86;74.30;100121.59;5043335;28;20072;-79
2023/08/20 02:38:33;;;;;;;0.20;0.20;;;;;;;20.87;73.61;100106.56;5025327;28;20045;-79
2023/08/20 02:40:59;;;;;;;0.20;0.20;;;;;;;20.93;74.13;100111.59;5032629;28;20493;-78
2023/08/20 02:43:25;;;;;;;0.20;0.20;;;;;;;20.90;73.08;100103.94;5022502;28;20052;-79
2023/08/20 02:45:52;;;;;;;0.20;0.20;;;;;;;20.92;73.01;100098.84;5018551;28;20144;-77
2023/08/20 02:48:19;;;;;;;0.20;0.20;;;;;;;20.92;74.38;100103.59;5045941;28;20044;-79
2023/08/20 02:50:45;;;;;;;0.20;0.20;;;;;;;20.88;73.97;100088.72;5012955;28;20336;-76
2023/08/20 02:53:12;;;;;;;0.20;0.20;;;;;;;20.93;75.08;100091.34;5027105;28;20041;-78
2023/08/20 02:55:40;;;;;;;0.20;0.20;;;;;;;20.97;74.82;100095.06;5035260;28;20121;-81
2023/08/20 02:58:07;;;;;;;0.30;0.30;;;;;;;21.00;74.28;100093.56;5051256;28;20068;-78
2023/08/20 03:00:33;;;;;;;0.30;0.30;;;;;;;21.10;72.98;100093.97;5046771;28;20061;-78
2023/08/20 03:03:02;;;;;;;0.30;0.30;;;;;;;21.20;73.31;100092.75;5024814;28;20065;-77
2023/08/20 03:05:28;;;;;;;0.30;0.30;;;;;;;21.28;74.53;100096.59;5034985;28;20056;-79
2023/08/20 03:07:55;;;;;;;0.30;0.30;;;;;;;21.35;73.33;100102.41;5042254;28;20045;-80
2023/08/20 03:10:21;;;;;;;0.20;0.20;;;;;;;21.43;74.55;100108.25;5028745;28;20514;-79
2023/08/20 03:12:49;;;;;;;0.30;0.30;;;;;;;21.43;75.14;100103.50;5010729;28;20056;-77
2023/08/20 03:15:15;;;;;;;0.30;0.30;;;;;;;21.51;75.87;100101.78;5025796;28;20104;-77
2023/08/20 03:17:41;;;;;;;0.30;0.30;;;;;;;21.63;75.59;100106.59;5010190;28;20052;-77
2023/08/20 03:20:09;;;;;;;0.30;0.30;;;;;;;21.73;73.76;100111.75;5021509;28;20078;-77
2023/08/20 03:22:37;;;;;;;0.30;0.30;;;;;;;21.87;74.36;100108.66;5016287;28;20307;-77
2023/08/20 03:25:04;;;;;;;0.30;0.30;;;;;;;21.89;73.88;100099.97;5022544;28;20457;-78
2023/08/20 03:27:31;;;;;;;0.30;0.30;;;;;;;21.96;73.70;100120.50;5024685;28;20051;-77
2023/08/20 03:29:59;;;;;;;0.20;0.20;;;;;;;21.99;72.57;100116.22;5026994;28;20140;-78
2023/08/20 03:32:30;;;;;;;0.30;0.30;;;;;;;21.96;72.29;100131.63;5026531;28;20052;-77
2023/08/20 03:34:58;;;;;;;0.20;0.20;;;;;;;21.84;73.15;100134.38;5008925;28;20049;-77
2023/08/20 03:37:25;;;;;;;0.30;0.30;;;;;;;21.76;74.97;100130.53;5019206;28;20091;-77
2023/08/20 03:39:52;;;;;;;0.30;0.30;;;;;;;21.71;75.91;100136.31;5043626;28;20057;-77
2023/08/20 03:42:18;;;;;;;0.30;0.30;;;;;;;21.53;78.69;100149.53;5043971;28;20732;-77
2023/08/20 03:44:44;;;;;;;0.30;0.30;;;;;;;21.27;80.88;100156.16;5025794;28;20299;-76
2023/08/20 03:47:12;;;;;;;0.20;0.20;;;;;;;20.99;83.22;100147.50;5040840;28;20821;-79
2023/08/20 03:49:38;;;;;;;0.30;0.30;;;;;;;20.77;83.95;100157.75;5032795;28;20395;-79
2023/08/20 03:52:06;;;;;;;0.20;0.20;;;;;;;20.59;85.29;100146.72;5028728;28;20045;-79
2023/08/20 03:54:33;;;;;;;0.25;0.25;;;;;;;20.41;86.13;100132.09;5030221;28;20132;-78
2023/08/20 03:56:59;;;;;;;;;;;;;;;20.32;85.79;100125.78;5022581;28;20071;-77
2023/08/20 03:59:25;;;;;;;0.20;0.20;;;;;;;20.27;85.17;100124.00;5035813;28;20443;-79
2023/08/20 04:01:52;;;;;;;0.20;0.20;;;;;;;20.15;83.99;100090.56;5026566;28;20055;-78
2023/08/20 04:04:21;;;;;;;0.20;0.20;;;;;;;20.21;83.13;100105.88;5027345;28;20046;-78
2023/08/20 04:06:47;;;;;;;0.20;0.20;;;;;;;20.20;83.60;100102.31;5013166;28;20049;-78
2023/08/20 04:09:14;;;;;;;0.20;0.20;;;;;;;20.15;84.50;100083.09;5023556;28;20052;-79
2023/08/20 04:11:40;;;;;;;0.20;0.20;;;;;;;20.09;83.07;100065.78;5031623;28;20048;-79
2023/08/20 04:14:06;;;;;;;0.20;0.20;;;;;;;20.08;85.20;100075.28;5025008;28;20158;-78
2023/08/20 04:16:32;;;;;;;0.20;0.20;;;;;;;20.06;85.23;100072.00;5032163;28;20049;-76
2023/08/20 04:18:59;;;;;;;0.20;0.20;;;;;;;20.03;84.00;100077.41;5012602;28;20049;-76
2023/08/20 04:21:27;;;;;;;0.20;0.20;;;;;;;20.01;82.43;100069.41;5021129;28;20303;-76
2023/08/20 04:23:53;;;;;;;0.20;0.20;;;;;;;19.96;82.88;100048.19;5029824;28;20052;-76
2023/08/20 04:26:20;;;;;;;0.20;0.20;;;;;;;20.08;83.97;100050.28;5032940;28;20050;-78
2023/08/20 04:28:46;;;;;;;0.20;0.20;;;;;;;20.09;85.58;100046.38;5023179;28;20187;-76
2023/08/20 04:31:12;;;;;;;0.30;0.30;;;;;;;19.91;88.59;100042.00;5022122;28;20045;-76
2023/08/20 04:33:59;;;;;;;0.20;0.20;;;;;;;19.55;92.05;100055.97;5022676;28;20062;-77
2023/08/20 04:36:38;;;;;;;0.20;0.20;;;;;;;19.31;93.09;100050.94;5023324;28;20048;-76
2023/08/20 04:39:04;;;;;;;0.20;0.20;;;;;;;19.19;94.04;100059.94;5035259;28;20517;-77
2023/08/20 04:41:34;;;;;;;0.28;0.28;;;;;;;19.21;93.67;100077.03;5026365;28;20084;-77
2023/08/20 04:44:00;;;;;;;0.20;0.20;;;;;;;19.26;92.91;100067.75;5028154;28;20053;-76
2023/08/20 04:46:28;;;;;;;0.20;0.20;;;;;;;19.36;91.24;100069.38;5022900;28;20049;-77
2023/08/20 04:48:55;;;;;;;0.20;0.20;;;;;;;19.49;89.41;100060.06;5016563;28;20493;-77
2023/08/20 04:51:21;;;;;;;0.20;0.20;;;;;;;19.61;89.55;100070.47;5007479;28;20045;-76
2023/08/20 04:53:49;;;;;;;0.20;0.20;;;;;;;19.69;89.86;100074.38;5021141;28;20072;-77
2023/08/20 04:56:16;;;;;;;0.20;0.20;;;;;;;19.73;90.48;100083.66;5028906;28;20053;-76
2023/08/20 04:58:42;;;;;;;0.20;0.20;;;;;;;19.73;90.11;100088.41;5031430;28;20546;-77
2023/08/20 05:01:09;;;;;;;0.20;0.20;;;;;;;19.74;90.78;100088.06;5023551;28;20094;-77
2023/08/20 05:03:36;;;;;;;0.20;0.20;;;;;;;19.80;90.74;100091.47;5023532;28;20056;-77
2023/08/20 05:06:03;;;;;;;0.20;0.20;;;;;;;19.84;90.88;100084.13;5025960;28;20044;-78
2023/08/20 05:08:29;;;;;;;0.20;0.20;;;;;;;19.87;89.87;100086.25;5023499;28;20049;-76
2023/08/20 05:10:57;;;;;;;0.20;0.20;;;;;;;19.93;89.50;100079.38;5021914;28;20417;-77
2023/08/20 05:13:24;;;;;;;0.30;0.30;;;;;;;19.92;89.98;100086.09;5003396;28;20144;-78
2023/08/20 05:15:50;;;;;;;0.30;0.30;;;;;;;19.94;89.89;100080.22;5027043;28;20052;-77
2023/08/20 05:18:16;;;;;;;0.20;0.20;;;;;;;20.05;89.36;100083.44;5028591;28;20065;-77
2023/08/20 05:20:42;;;;;;;0.30;0.30;;;;;;;20.12;88.07;100073.44;5028504;28;20603;-77
2023/08/20 05:23:09;;;;;;;0.20;0.20;;;;;;;20.15;87.88;100079.47;5032117;28;20045;-77
2023/08/20 05:25:35;;;;;;;0.30;0.30;;;;;;;20.22;87.43;100063.94;5028846;28;20080;-77
2023/08/20 05:28:03;;;;;;;0.30;0.30;;;;;;;20.25;87.05;100070.78;5015243;28;20053;-77
2023/08/20 05:30:29;;;;;;;0.20;0.20;;;;;;;20.25;86.14;100066.03;5033696;28;20069;-77
2023/08/20 05:32:56;;;;;;;0.20;0.20;;;;;;;20.33;85.70;100058.81;5021120;28;20069;-77
2023/08/20 05:35:23;;;;;;;0.30;0.30;;;;;;;20.46;84.58;100054.19;5037033;28;20049;-76
2023/08/20 05:37:51;;;;;;;0.30;0.30;;;;;;;20.63;83.69;100055.22;5028150;28;20543;-76
2023/08/20 05:40:17;;;;;;;0.30;0.30;;;;;;;20.69;82.55;100046.34;5025459;28;20048;-75
2023/08/20 05:42:45;;;;;;;0.30;0.30;;;;;;;20.61;81.56;100038.88;5019333;28;20064;-76
2023/08/20 05:45:12;;;;;;;0.30;0.30;;;;;;;20.75;81.34;100040.59;5026509;28;20353;-77
2023/08/20 05:47:40;;;;;;;0.30;0.30;;;;;;;20.77;80.29;100033.56;5028179;28;20077;-78
2023/08/20 05:50:08;;;;;;;0.30;0.30;;;;;;;20.78;80.17;100042.69;5025548;28;20041;-77
2023/08/20 05:52:35;;;;;;;0.30;0.30;;;;;;;20.82;80.96;100035.31;5025246;28;20528;-77
2023/08/20 05:55:03;;;;;;;0.30;0.30;;;;;;;21.01;79.92;100025.72;5027413;28;20608;-78
2023/08/20 05:57:30;;;;;;;0.30;0.30;;;;;;;21.00;79.54;100026.88;5038106;28;20055;-78
2023/08/20 05:59:56;;;;;;;0.30;0.30;;;;;;;20.85;79.84;100031.06;5024368;28;20056;-77
2023/08/20 06:02:24;;;;;;;0.30;0.30;;;;;;;20.75;79.53;100010.81;5034749;28;20049;-77
2023/08/20 06:04:58;;;;;;;0.30;0.30;;;;;;;20.83;79.66;100017.50;5017876;28;20100;-78
2023/08/20 06:07:24;;;;;;;0.30;0.30;;;;;;;20.87;79.38;100024.03;5034870;28;20055;-78
2023/08/20 06:09:51;;;;;;;0.30;0.30;;;;;;;21.01;79.77;100015.41;5037555;28;20115;-76
2023/08/20 06:12:18;;;;;;;0.30;0.30;;;;;;;21.08;78.91;100015.69;5009381;28;20807;-77
2023/08/20 06:14:44;;;;;;;0.30;0.30;;;;;;;21.17;78.34;100014.75;5033006;28;20056;-77
2023/08/20 06:17:12;;;;;;;0.30;0.30;;;;;;;21.27;77.35;100014.34;5018328;28;20037;-77
2023/08/20 06:19:39;;;;;;;0.30;0.30;;;;;;;21.45;76.30;100012.19;5026091;28;20051;-78
2023/08/20 06:22:06;;;;;;;0.35;0.35;;;;;;;21.63;75.51;100012.81;5012720;28;20049;-78
2023/08/20 06:24:32;;;;;;;0.30;0.30;;;;;;;21.92;74.96;100002.69;5038016;28;20044;-78
2023/08/20 06:26:59;;;;;;;0.40;0.40;;;;;;;22.22;72.78;99999.66;5026866;28;20046;-76
2023/08/20 06:29:25;;;;;;;0.37;0.37;;;;;;;22.64;71.34;100006.13;5018093;28;20049;-78
2023/08/20 06:31:51;;;;;;;0.30;0.30;;;;;;;22.87;70.99;99991.66;5036144;28;20797;-78
2023/08/20 06:34:19;;;;;;;0.35;0.35;;;;;;;23.27;69.66;100001.97;5031993;28;20045;-77
2023/08/20 06:36:47;;;;;;;0.40;0.40;;;;;;;23.46;68.34;99989.31;5023897;28;20136;-77
2023/08/20 06:39:15;;;;;;;0.40;0.40;;;;;;;23.77;67.32;99991.28;5019321;28;20045;-78
2023/08/20 06:41:41;;;;;;;0.40;0.40;;;;;;;23.84;66.48;99992.66;5032829;28;20080;-77
2023/08/20 06:44:19;;;;;;;0.30;0.30;;;;;;;23.90;65.83;99988.41;5028858;28;20064;-78
2023/08/20 06:46:45;;;;;;;0.30;0.30;;;;;;;24.12;65.39;99984.19;5025065;28;20210;-77
2023/08/20 06:49:12;;;;;;;0.30;0.30;;;;;;;24.38;63.76;99987.56;5023319;28;20592;-78
2023/08/20 06:51:38;;;;;;;0.30;0.30;;;;;;;24.49;63.48;99969.06;5034195;28;20033;-79
2023/08/20 06:54:06;;;;;;;0.30;0.30;;;;;;;24.63;63.78;99983.34;5027454;28;20362;-77
2023/08/20 06:56:33;;;;;;;0.30;0.30;;;;;;;24.47;64.10;99988.97;5015178;28;20049;-77
2023/08/20 06:59:00;;;;;;;0.30;0.30;;;;;;;24.26;64.37;99985.69;5022568;28;20057;-77
2023/08/20 07:01:27;;;;;;;0.30;0.30;;;;;;;24.07;64.31;99984.47;5033753;28;20473;-77
2023/08/20 07:03:55;;;;;;;0.30;0.30;;;;;;;24.18;64.78;99976.34;5036550;28;20037;-77
2023/08/20 07:06:21;;;;;;;0.47;0.38;;;;;;;24.06;64.91;99974.47;5038117;28;20520;-76
2023/08/20 07:08:48;;;;;;;0.30;0.30;;;;;;;23.96;65.97;99975.00;5037374;28;20041;-78
2023/08/20 07:11:15;;;;;;;0.30;0.30;;;;;;;24.00;65.57;99981.47;5021134;28;20085;-77
2023/08/20 07:13:42;;;;;;;0.40;0.40;;;;;;;24.14;64.74;99970.66;5030518;28;20147;-77
2023/08/20 07:16:09;;;;;;;0.30;0.30;;;;;;;24.39;63.56;99983.59;5024650;28;20041;-78
2023/08/20 07:18:35;;;;;;;0.40;0.40;;;;;;;24.45;63.21;99968.97;5035503;28;20051;-79
2023/08/20 07:21:02;;;;;;;0.40;0.40;;;;;;;24.55;62.61;99984.34;5030121;28;20046;-78
2023/08/20 07:23:30;;;;;;;;;;;;;;;24.53;62.77;99977.53;5029369;28;20046;-77
2023/08/20 07:26:05;;;;;;;0.40;0.40;;;;;;;24.71;62.48;99975.91;5013846;28;19929;-77
2023/08/20 07:31:18;;;;;;;0.40;0.40;;;;;;;25.09;60.40;99970.72;5032852;28;20056;-79
2023/08/20 07:33:46;;;;;;;0.30;0.30;;;;;;;25.45;59.02;99959.38;5035360;28;20053;-77
2023/08/20 07:36:14;;;;;;;0.40;0.40;;;;;;;25.84;56.66;99973.25;5033599;28;20055;-76
2023/08/20 07:38:42;;;;;;;0.40;0.40;;;;;;;25.68;57.11;99967.81;5029314;28;20041;-76
2023/08/20 07:41:08;;;;;;;0.40;0.40;;;;;;;25.67;57.78;99968.16;5035157;28;20071;-77
2023/08/20 07:43:38;;;;;;;0.40;0.40;;;;;;;25.82;56.53;99964.41;5033492;28;20048;-75
2023/08/20 07:46:05;;;;;;;0.32;0.32;;;;;;;25.97;56.66;99965.44;5033491;28;20075;-77
2023/08/20 07:48:32;;;;;;;0.40;0.40;;;;;;;26.25;55.83;99961.47;5030931;28;20076;-77
2023/08/20 07:50:59;;;;;;;0.40;0.40;;;;;;;26.10;54.58;99960.44;5030292;28;20139;-78
2023/08/20 07:53:25;;;;;;;0.35;0.35;;;;;;;25.70;55.61;99956.22;5025314;28;20103;-77
2023/08/20 07:55:52;;;;;;;0.40;0.40;;;;;;;25.69;55.81;99951.78;5031567;28;20056;-77
2023/08/20 07:58:19;;;;;;;0.50;0.50;;;;;;;26.05;55.03;99960.75;5016379;28;20042;-77
2023/08/20 08:00:47;;;;;;;0.40;0.40;;;;;;;26.19;54.97;99949.00;5029014;28;20037;-76
2023/08/20 08:03:22;;;;;;;0.43;0.43;;;;;;;26.45;53.82;99945.34;5019875;28;20312;-76
2023/08/20 08:05:54;;;;;;;0.50;0.50;;;;;;;26.95;52.71;99938.75;5030995;28;20048;-77
2023/08/20 08:08:21;;;;;;;0.50;0.50;;;;;;;27.17;51.55;99936.19;4682654;28;9999954;-77
2023/08/20 08:10:47;;;;;;;0.43;0.43;;;;;;;27.38;51.12;99931.97;5031689;28;20178;-77
2023/08/20 08:13:16;;;;;;;0.40;0.40;;;;;;;27.46;50.48;99934.47;5030238;28;20130;-76
2023/08/20 08:15:42;;;;;;;0.50;0.50;;;;;;;27.50;50.11;99928.88;5031461;28;20049;-80
2023/08/20 08:18:10;;;;;;;0.40;0.40;;;;;;;27.66;49.46;99925.03;5030226;28;20050;-80
2023/08/20 08:20:37;;;;;;;0.50;0.50;;;;;;;27.91;50.00;99922.41;5035500;28;20048;-80
2023/08/20 08:23:03;;;;;;;0.50;0.50;;;;;;;28.24;48.51;99917.81;5030769;28;20045;-77
2023/08/20 08:25:30;;;;;;;0.50;0.50;;;;;;;28.74;47.80;99922.03;5028365;28;20037;-76
2023/08/20 08:27:58;;;;;;;0.50;0.50;;;;;;;29.09;46.39;99911.31;5028587;28;20143;-76
2023/08/20 08:30:24;;;;;;;0.40;0.40;;;;;;;29.00;45.50;99909.66;5010670;28;20151;-78
2023/08/20 08:32:51;;;;;;;;;;;;;;;28.83;45.95;99907.63;5025012;28;20040;-78
2023/08/20 08:35:20;;;;;;;0.50;0.50;;;;;;;29.06;46.03;99903.66;4998527;28;20139;-76
2023/08/20 08:37:46;;;;;;;0.50;0.50;;;;;;;29.67;45.01;99895.25;5013445;28;20068;-76
2023/08/20 08:40:13;;;;;;;0.50;0.50;;;;;;;30.08;44.13;99899.63;5027824;28;20785;-77
2023/08/20 08:42:42;;;;;;;0.50;0.50;;;;;;;30.03;43.38;99904.88;5028145;28;20088;-76
2023/08/20 08:45:10;;;;;;;0.60;0.60;;;;;;;29.73;44.30;99898.47;5027657;28;20049;-79
2023/08/20 08:47:40;;;;;;;0.52;0.52;;;;;;;29.84;43.85;99887.19;5033944;28;20033;-76
2023/08/20 08:50:09;;;;;;;0.63;0.60;;;;;;;30.26;43.57;99907.22;5014486;28;20046;-82
2023/08/20 08:52:39;;;;;;;0.50;0.50;;;;;;;29.96;42.78;99883.13;5015703;28;20569;-80
2023/08/20 08:55:08;;;;;;;0.52;0.52;;;;;;;29.94;43.70;99891.19;5030690;28;20032;-80
2023/08/20 08:57:35;;;;;;;0.60;0.60;;;;;;;30.19;43.62;99884.72;5012340;28;20040;-79
2023/08/20 09:00:06;;;;;;;0.60;0.60;;;;;;;30.57;41.81;99884.94;5028010;28;20123;-80
2023/08/20 09:02:33;;;;;;;0.57;0.57;;;;;;;30.62;41.92;99895.84;5028018;28;20044;-77
2023/08/20 09:05:00;;;;;;;0.50;0.50;;;;;;;30.71;42.28;99892.56;5034729;28;20040;-76
2023/08/20 09:07:29;;;;;;;0.50;0.50;;;;;;;30.91;42.13;99894.88;5029578;28;20140;-77
2023/08/20 09:10:00;;;;;;;0.60;0.60;;;;;;;30.97;41.61;99901.69;5030415;28;20571;-76
2023/08/20 09:12:28;;;;;;;0.60;0.60;;;;;;;30.78;41.79;99905.84;5028704;28;20474;-80
2023/08/20 09:14:57;;;;;;;0.60;0.60;;;;;;;30.84;41.33;99898.53;5023783;28;20132;-80
2023/08/20 09:17:26;;;;;;;0.60;0.60;;;;;;;30.76;41.35;99899.81;5028779;28;20068;-81
2023/08/20 09:19:58;;;;;;;0.60;0.60;;;;;;;30.83;40.85;99902.59;4993971;28;20046;-80
2023/08/20 09:22:27;;;;;;;0.70;0.70;;;;;;;31.05;39.97;99902.44;5010286;28;20053;-81
2023/08/20 09:24:55;;;;;;;0.70;0.70;;;;;;;31.12;39.47;99891.09;5036629;28;20045;-80
2023/08/20 09:27:26;;;;;;;0.70;0.70;;;;;;;31.12;39.30;99886.25;5031271;28;20512;-76
2023/08/20 09:29:54;;;;;;;0.70;0.70;;;;;;;30.71;40.10;99881.28;5029351;28;20045;-81
2023/08/20 09:32:22;;;;;;;0.70;0.70;;;;;;;30.66;40.57;99888.16;5034075;28;20053;-80
2023/08/20 09:34:49;;;;;;;0.70;0.70;;;;;;;30.52;40.00;99882.56;5038099;28;20053;-80
2023/08/20 09:37:17;;;;;;;0.80;0.80;;;;;;;30.72;40.25;99863.16;5016636;28;20049;-77
2023/08/20 09:39:45;;;;;;;0.70;0.70;;;;;;;31.17;39.15;99864.47;5038811;28;20041;-76
2023/08/20 09:42:13;;;;;;;0.77;0.77;;;;;;;31.71;39.04;99868.84;5038818;28;20423;-81
2023/08/20 09:44:42;;;;;;;0.70;0.70;;;;;;;32.04;37.09;99863.69;5037195;28;20079;-76
2023/08/20 09:47:09;;;;;;;0.80;0.80;;;;;;;32.25;36.14;99860.59;5040092;28;20459;-82
2023/08/20 09:49:38;;;;;;;0.80;0.80;;;;;;;32.77;35.45;99864.38;5025294;28;20069;-81
2023/08/20 09:52:07;;;;;;;0.70;0.70;;;;;;;33.04;34.40;99846.63;5035428;28;20563;-80
2023/08/20 09:54:52;;;;;;;0.70;0.70;;;;;;;33.34;34.81;99839.25;5032434;28;20049;-80
2023/08/20 09:57:26;;;;;;;0.60;0.60;;;;;;;33.93;33.59;99851.13;5025229;28;20050;-80
2023/08/20 09:59:55;;;;;;;0.70;0.70;;;;;;;33.44;34.06;99839.50;5045054;28;20065;-81
2023/08/20 10:02:22;;;;;;;0.68;0.68;;;;;;;33.16;34.76;99839.53;5019468;28;20053;-80
2023/08/20 10:04:48;;;;;;;;;;;;;;;32.63;34.97;99850.44;5029784;28;20054;-76
2023/08/20 10:07:15;;;;;;;0.60;0.60;;;;;;;32.09;36.16;99851.94;5021448;28;20466;-76
2023/08/20 10:09:45;;;;;;;0.70;0.70;;;;;;;31.82;35.64;99841.31;5023122;28;20091;-76
2023/08/20 10:12:13;;;;;;;0.60;0.60;;;;;;;31.99;35.54;99836.66;5022761;28;20052;-76
2023/08/20 10:14:40;;;;;;;0.60;0.60;;;;;;;32.42;34.95;99841.03;5039298;28;20059;-77
2023/08/20 10:17:09;;;;;;;0.70;0.70;;;;;;;32.90;34.77;99839.13;5021033;28;20091;-76
2023/08/20 10:19:37;;;;;;;0.60;0.60;;;;;;;32.75;35.41;99824.38;5039654;28;20069;-77
2023/08/20 10:22:05;;;;;;;0.65;0.65;;;;;;;32.81;35.48;99833.19;5037073;28;20136;-76
2023/08/20 10:24:41;;;;;;;0.60;0.60;;;;;;;32.29;36.65;99831.47;5037487;28;20041;-76
2023/08/20 10:27:09;;;;;;;0.60;0.60;;;;;;;31.65;38.03;99826.13;5034437;28;20162;-76
2023/08/20 10:29:38;;;;;;;0.60;0.60;;;;;;;31.13;38.67;99837.03;5029403;28;20046;-76
2023/08/20 10:32:10;;;;;;;0.50;0.50;;;;;;;30.53;39.65;99842.69;5040449;28;20083;-76
2023/08/20 10:34:38;;;;;;;0.60;0.60;;;;;;;30.34;40.33;99826.25;5033898;28;20041;-74
2023/08/20 10:37:10;;;;;;;0.60;0.60;;;;;;;30.43;40.60;99823.78;5024188;28;20052;-76
2023/08/20 10:39:36;;;;;;;0.60;0.60;;;;;;;30.37;40.63;99812.13;5024101;28;20056;-76
2023/08/20 10:42:23;;;;;;;0.50;0.50;;;;;;;30.11;41.34;99813.47;5019486;28;20509;-76
2023/08/20 10:45:00;;;;;;;0.50;0.50;;;;;;;29.63;42.15;99803.53;5041035;28;20063;-76
2023/08/20 10:47:35;;;;;;;0.50;0.50;;;;;;;29.43;43.01;99803.97;5008664;28;20064;-76
2023/08/20 10:50:03;;;;;;;0.50;0.50;;;;;;;29.74;42.76;99809.13;5034697;28;20142;-76
2023/08/20 10:52:30;;;;;;;0.60;0.60;;;;;;;30.03;42.08;99798.59;5034560;28;20050;-77
2023/08/20 10:54:57;;;;;;;0.50;0.50;;;;;;;30.07;41.60;99799.38;5023782;28;20195;-76
2023/08/20 10:57:33;;;;;;;0.50;0.50;;;;;;;30.00;41.95;99788.91;5028119;28;20385;-77
2023/08/20 11:00:02;;;;;;;;;;;;;;;30.16;42.57;99796.13;5037176;28;20389;-76
2023/08/20 11:02:30;;;;;;;0.40;0.40;;;;;;;30.07;42.78;99795.78;5028019;28;19928;-76
2023/08/20 11:04:56;;;;;;;0.40;0.40;;;;;;;29.78;43.13;99793.03;5009376;28;20140;-75
2023/08/20 11:07:26;;;;;;;0.40;0.40;;;;;;;29.28;43.96;99798.31;5029485;28;20097;-76
2023/08/20 11:09:54;;;;;;;0.40;0.40;;;;;;;28.84;44.79;99796.72;5035010;28;20049;-76
2023/08/20 11:12:22;;;;;;;0.43;0.43;;;;;;;28.43;45.75;99801.44;5026538;28;20061;-76
2023/08/20 11:14:49;;;;;;;0.35;0.35;;;;;;;28.31;46.30;99794.16;5037567;28;20155;-76
2023/08/20 11:17:15;;;;;;;0.30;0.30;;;;;;;28.03;46.80;99798.47;5032928;28;20060;-77
2023/08/20 11:19:46;;;;;;;0.40;0.40;;;;;;;27.57;47.74;99785.00;5033724;28;20524;-77
2023/08/20 11:22:15;;;;;;;0.30;0.30;;;;;;;27.36;49.20;99785.63;5041803;28;20166;-76
2023/08/20 11:24:43;;;;;;;0.38;0.38;;;;;;;27.31;49.18;99776.34;5034010;28;20034;-76
2023/08/20 11:27:09;;;;;;;0.35;0.35;;;;;;;27.36;49.06;99763.16;5026988;28;20102;-76
2023/08/20 11:29:36;;;;;;;0.30;0.30;;;;;;;27.39;49.14;99770.81;5027577;28;20140;-76
2023/08/20 11:32:03;;;;;;;;;;;;;;;27.48;49.30;99762.03;5045267;28;20045;-75
2023/08/20 11:34:29;;;;;;;;;;;;;;;27.25;49.64;99757.50;5019226;28;19929;-77
2023/08/20 11:36:57;;;;;;;0.30;0.30;;;;;;;27.14;49.95;99755.41;5029739;28;20007;-76